LFBC 192200Z AUTO 34004KT CAVOK 17/15 Q1022
LFBD 192200Z AUTO 36005KT CAVOK 19/16 Q1022 NOSIG